Time;durP1;ratioP1;P1;durP2;ratioP2;P2;SDS_P1;SDS_P2;PMS_P1;PMS_P2;Temp;Humidity;BMP_temperature;BMP_pressure;BME280_temperature;BME280_humidity;BME280_pressure;Samples;Min_cycle;Max_cycle;Signal;HPM_P1;HPM_P2
2021/05/14 00:00:47;;;;;;;12.67;11.00;;;13.80;99.90;;;;;;4920040;29;20195;-69
2021/05/14 00:03:13;;;;;;;11.83;10.83;;;13.80;99.90;;;;;;4922697;29;20556;-70
2021/05/14 00:05:39;;;;;;;15.70;12.70;;;13.80;99.90;;;;;;4919927;29;20431;-70
2021/05/14 00:08:06;;;;;;;14.50;13.00;;;13.80;99.90;;;;;;4919245;29;20427;-71
2021/05/14 00:10:34;;;;;;;12.30;11.10;;;13.80;99.90;;;;;;4918852;29;20439;-70
2021/05/14 00:13:00;;;;;;;12.80;11.57;;;13.80;99.90;;;;;;4918805;29;20423;-71
2021/05/14 00:15:26;;;;;;;11.87;10.67;;;13.80;99.90;;;;;;4919028;29;20459;-70
2021/05/14 00:17:51;;;;;;;13.33;11.93;;;13.90;99.90;;;;;;4920056;29;20897;-71
2021/05/14 00:20:17;;;;;;;13.93;12.40;;;13.90;99.90;;;;;;4919004;29;20665;-71
2021/05/14 00:22:43;;;;;;;12.13;10.93;;;13.90;99.90;;;;;;4918260;29;20589;-71
2021/05/14 00:25:10;;;;;;;13.13;11.93;;;13.80;99.90;;;;;;4918750;29;20451;-71
2021/05/14 00:27:36;;;;;;;13.50;12.20;;;13.80;99.90;;;;;;4924785;29;20182;-70
2021/05/14 00:30:06;;;;;;;15.37;12.93;;;13.80;99.90;;;;;;4937666;29;20760;-71
2021/05/14 00:32:32;;;;;;;14.50;13.00;;;13.70;99.90;;;;;;4937518;29;20186;-70
2021/05/14 00:34:57;;;;;;;13.80;12.40;;;13.70;99.90;;;;;;4938857;29;20445;-71
2021/05/14 00:37:23;;;;;;;13.33;11.40;;;13.70;99.90;;;;;;4937711;28;20221;-71
2021/05/14 00:39:48;;;;;;;13.77;12.40;;;13.80;99.90;;;;;;4936419;29;20640;-70
2021/05/14 00:42:14;;;;;;;15.87;13.17;;;13.80;99.90;;;;;;4948399;29;20181;-70
2021/05/14 00:44:47;;;;;;;13.83;12.33;;;13.80;99.90;;;;;;4961077;28;20258;-70
2021/05/14 00:47:16;;;;;;;14.27;12.80;;;13.80;99.90;;;;;;4960522;28;20171;-70
2021/05/14 00:49:45;;;;;;;12.77;11.57;;;13.70;99.90;;;;;;4936244;29;20469;-70
2021/05/14 00:52:14;;;;;;;13.20;11.83;;;13.70;99.90;;;;;;4937853;29;20770;-71
2021/05/14 00:54:41;;;;;;;13.90;12.47;;;13.60;99.90;;;;;;4937414;29;20444;-70
2021/05/14 00:57:08;;;;;;;14.17;12.77;;;13.50;99.90;;;;;;4937267;28;20422;-71
2021/05/14 00:59:34;;;;;;;13.93;12.60;;;13.50;99.90;;;;;;4935941;29;20473;-71
2021/05/14 01:02:00;;;;;;;11.90;10.80;;;13.60;99.90;;;;;;4937702;29;20414;-70
2021/05/14 01:04:26;;;;;;;11.07;10.07;;;13.40;99.90;;;;;;4936902;29;20919;-71
2021/05/14 01:06:52;;;;;;;11.00;10.00;;;13.40;99.90;;;;;;4937381;29;20186;-70
2021/05/14 01:09:17;;;;;;;11.20;10.20;;;13.50;99.90;;;;;;4937191;29;20213;-70
2021/05/14 01:11:43;;;;;;;12.30;11.20;;;13.40;99.90;;;;;;4950829;29;20477;-71
2021/05/14 01:14:10;;;;;;;12.43;11.17;;;13.40;99.90;;;;;;4936964;29;20205;-70
2021/05/14 01:16:35;;;;;;;11.13;10.13;;;13.40;99.90;;;;;;4937400;29;20506;-70
2021/05/14 01:19:02;;;;;;;10.73;9.73;;;13.30;99.90;;;;;;4936551;29;20548;-70
2021/05/14 01:21:27;;;;;;;12.18;10.98;;;13.30;99.90;;;;;;4934873;29;20524;-71
2021/05/14 01:23:53;;;;;;;12.20;11.00;;;13.30;99.90;;;;;;4936070;28;20574;-70
2021/05/14 01:26:21;;;;;;;9.90;9.10;;;13.20;99.90;;;;;;4935732;29;20217;-71
2021/05/14 01:28:47;;;;;;;10.10;9.20;;;13.20;99.90;;;;;;4937187;29;20550;-70
2021/05/14 01:31:13;;;;;;;10.77;9.67;;;13.20;99.90;;;;;;4934845;29;20445;-71
2021/05/14 01:33:39;;;;;;;10.77;9.67;;;13.20;99.90;;;;;;4936612;29;20410;-70
2021/05/14 01:36:06;;;;;;;11.00;9.90;;;13.20;99.90;;;;;;4936544;29;20453;-70
2021/05/14 01:38:33;;;;;;;10.03;9.13;;;13.20;99.90;;;;;;4936509;28;20461;-71
2021/05/14 01:40:58;;;;;;;10.87;9.70;;;13.20;99.90;;;;;;4936481;29;20891;-71
2021/05/14 01:43:24;;;;;;;10.93;9.83;;;13.20;99.90;;;;;;4934901;29;20421;-71
2021/05/14 01:45:49;;;;;;;10.90;9.80;;;13.20;99.90;;;;;;4936483;29;20194;-71
2021/05/14 01:48:15;;;;;;;11.90;10.63;;;13.10;99.90;;;;;;4936559;29;20185;-71
2021/05/14 01:50:41;;;;;;;12.13;10.80;;;13.00;99.90;;;;;;4935887;28;20225;-72
2021/05/14 01:53:07;;;;;;;12.10;10.90;;;13.00;99.90;;;;;;4934576;29;20711;-72
2021/05/14 01:55:34;;;;;;;12.67;11.37;;;13.00;99.90;;;;;;4936418;29;20434;-71
2021/05/14 01:58:00;;;;;;;13.37;12.07;;;13.00;99.90;;;;;;4936279;29;20178;-71
2021/05/14 02:00:25;;;;;;;16.20;12.33;;;12.90;99.90;;;;;;4936277;29;20476;-71
2021/05/14 02:02:51;;;;;;;13.40;12.10;;;12.90;99.90;;;;;;4935070;28;20718;-70
2021/05/14 02:05:16;;;;;;;14.23;12.73;;;12.90;99.90;;;;;;4935153;29;20249;-70
2021/05/14 02:07:42;;;;;;;14.53;13.10;;;12.90;99.90;;;;;;4936550;29;20173;-70
2021/05/14 02:10:08;;;;;;;14.07;12.67;;;12.90;99.90;;;;;;4936188;29;20547;-71
2021/05/14 02:12:34;;;;;;;16.60;15.00;;;12.90;99.90;;;;;;4949847;29;20478;-71
2021/05/14 02:15:00;;;;;;;15.40;14.00;;;12.80;99.90;;;;;;4934035;29;20889;-72
2021/05/14 02:17:28;;;;;;;14.83;13.33;;;12.80;99.90;;;;;;4935864;29;20185;-71
2021/05/14 02:19:54;;;;;;;16.77;15.18;;;12.80;99.90;;;;;;4934840;29;20524;-71
2021/05/14 02:22:20;;;;;;;15.33;13.73;;;12.90;99.90;;;;;;4920437;29;20187;-71
2021/05/14 02:24:45;;;;;;;16.10;14.33;;;12.90;99.90;;;;;;4931121;29;20455;-71
2021/05/14 02:27:11;;;;;;;15.00;13.60;;;12.90;99.90;;;;;;4916775;29;20191;-71
2021/05/14 02:29:37;;;;;;;13.60;12.40;;;12.80;99.90;;;;;;4916851;29;20202;-71
2021/05/14 02:32:05;;;;;;;15.20;13.63;;;12.70;99.90;;;;;;4918096;29;20925;-71
2021/05/14 02:34:31;;;;;;;15.67;13.50;;;12.70;99.90;;;;;;4916805;29;20194;-71
2021/05/14 02:36:58;;;;;;;14.63;13.23;;;12.70;99.90;;;;;;4916712;29;20439;-71
2021/05/14 02:39:23;;;;;;;13.80;12.40;;;12.60;99.90;;;;;;4916639;29;20828;-72
2021/05/14 02:41:49;;;;;;;13.40;12.00;;;12.60;99.90;;;;;;4917841;29;20426;-70
2021/05/14 02:44:15;;;;;;;14.43;12.90;;;12.60;99.90;;;;;;4916548;29;20276;-71
2021/05/14 02:46:42;;;;;;;14.63;12.00;;;12.60;99.90;;;;;;4916885;29;20206;-72
2021/05/14 02:49:08;;;;;;;13.80;12.50;;;12.60;99.90;;;;;;4916784;29;20175;-72
2021/05/14 02:51:33;;;;;;;13.63;12.33;;;12.60;99.90;;;;;;4916541;29;20477;-71
2021/05/14 02:53:59;;;;;;;14.30;12.77;;;12.60;99.90;;;;;;4916354;29;20454;-71
2021/05/14 02:56:27;;;;;;;13.77;12.43;;;12.60;99.90;;;;;;4916808;29;20179;-71
2021/05/14 02:58:52;;;;;;;14.47;12.70;;;12.60;99.90;;;;;;4917291;29;20203;-71
2021/05/14 03:01:18;;;;;;;14.20;12.70;;;12.50;99.90;;;;;;4919181;29;20913;-71
2021/05/14 03:03:44;;;;;;;14.40;12.90;;;12.30;99.90;;;;;;4927092;29;20177;-71
2021/05/14 03:06:09;;;;;;;15.90;13.67;;;12.40;99.90;;;;;;4937482;29;20609;-71
2021/05/14 03:08:35;;;;;;;14.20;12.40;;;12.30;99.90;;;;;;4937734;29;20179;-71
2021/05/14 03:11:01;;;;;;;13.77;12.15;;;12.30;99.90;;;;;;4939572;29;20448;-71
2021/05/14 03:13:26;;;;;;;16.27;14.07;;;12.30;99.90;;;;;;4937951;29;20572;-71
2021/05/14 03:15:52;;;;;;;17.37;13.17;;;12.20;99.90;;;;;;4938049;29;20210;-71
2021/05/14 03:18:17;;;;;;;15.77;12.73;;;12.20;99.90;;;;;;4938887;29;20178;-71
2021/05/14 03:20:43;;;;;;;13.70;12.20;;;12.20;99.90;;;;;;4939093;29;20186;-70
2021/05/14 03:23:08;;;;;;;14.63;12.37;;;12.10;99.90;;;;;;4938516;29;20174;-70
2021/05/14 03:25:34;;;;;;;15.10;13.50;;;12.10;99.90;;;;;;4936705;28;20269;-71
2021/05/14 03:28:00;;;;;;;14.33;12.53;;;12.10;99.90;;;;;;4938809;29;20178;-71
2021/05/14 03:30:26;;;;;;;14.10;12.53;;;12.00;99.90;;;;;;4938757;29;20167;-71
2021/05/14 03:32:52;;;;;;;12.30;11.00;;;11.90;99.90;;;;;;4938515;29;20413;-71
2021/05/14 03:35:17;;;;;;;14.37;11.93;;;12.00;99.90;;;;;;4937128;29;20194;-71
2021/05/14 03:37:43;;;;;;;13.23;11.67;;;12.10;99.90;;;;;;4938476;28;20656;-71
2021/05/14 03:40:34;;;;;;;15.33;13.70;;;12.10;99.90;;;;;;4938556;29;20198;-71
2021/05/14 03:43:00;;;;;;;12.70;11.50;;;12.00;99.90;;;;;;4938381;29;20155;-71
2021/05/14 03:45:26;;;;;;;12.93;11.60;;;12.00;99.90;;;;;;4936926;29;20430;-71
2021/05/14 03:47:55;;;;;;;13.90;11.57;;;12.00;99.90;;;;;;4938386;29;20421;-70
2021/05/14 03:50:21;;;;;;;12.40;11.10;;;12.00;99.90;;;;;;4937570;28;20438;-71
2021/05/14 03:52:47;;;;;;;13.17;11.23;;;12.00;99.90;;;;;;4938401;29;20413;-71
2021/05/14 03:55:12;;;;;;;15.20;11.80;;;12.00;99.90;;;;;;4938118;29;20302;-71
2021/05/14 03:57:38;;;;;;;13.10;11.20;;;12.10;99.90;;;;;;4936936;29;20182;-71
2021/05/14 04:00:06;;;;;;;13.33;12.03;;;12.00;99.90;;;;;;4937326;29;20444;-71
2021/05/14 04:02:32;;;;;;;13.73;12.33;;;12.00;99.90;;;;;;4938032;29;20894;-71
2021/05/14 04:04:58;;;;;;;12.60;11.17;;;12.10;99.90;;;;;;4937940;29;20440;-71
2021/05/14 04:07:24;;;;;;;13.32;11.90;;;12.20;99.90;;;;;;4935546;29;20434;-71
2021/05/14 04:10:00;;;;;;;11.30;10.40;;;12.20;99.90;;;;;;4937800;29;20648;-71
2021/05/14 04:15:08;;;;;;;18.50;11.23;;;12.30;99.90;;;;;;4937967;29;20548;-72
2021/05/14 04:17:34;;;;;;;11.27;10.00;;;12.20;99.90;;;;;;4936429;29;20518;-71
2021/05/14 04:20:00;;;;;;;12.00;10.10;;;12.20;99.90;;;;;;4937117;28;20555;-71
2021/05/14 04:22:27;;;;;;;12.50;10.40;;;12.20;99.90;;;;;;4937115;29;20707;-71
2021/05/14 04:24:52;;;;;;;11.73;10.27;;;12.30;99.90;;;;;;4937624;29;20575;-71
2021/05/14 04:27:19;;;;;;;10.87;9.70;;;12.20;99.90;;;;;;4937869;29;20418;-71
2021/05/14 04:29:44;;;;;;;11.80;9.50;;;12.20;99.90;;;;;;4936226;29;20186;-71
2021/05/14 04:32:10;;;;;;;13.03;10.90;;;12.30;99.90;;;;;;4937510;29;20412;-71
2021/05/14 04:34:35;;;;;;;11.00;9.90;;;12.30;99.90;;;;;;4937493;29;20225;-71
2021/05/14 04:37:01;;;;;;;10.43;9.33;;;12.30;99.90;;;;;;4937480;28;20196;-72
2021/05/14 04:39:27;;;;;;;14.70;8.93;;;12.40;99.90;;;;;;4935922;29;20241;-71
2021/05/14 04:41:53;;;;;;;11.57;9.20;;;12.40;99.90;;;;;;4937590;29;20888;-71
2021/05/14 04:44:18;;;;;;;10.20;9.20;;;12.40;99.90;;;;;;4937407;29;20651;-71
2021/05/14 04:46:44;;;;;;;10.53;9.07;;;12.50;99.90;;;;;;4937336;29;20417;-71
2021/05/14 04:49:10;;;;;;;11.53;9.10;;;12.60;99.90;;;;;;4951734;29;20689;-71
2021/05/14 04:51:36;;;;;;;13.10;10.00;;;12.60;99.90;;;;;;4936012;29;20518;-71
2021/05/14 04:54:01;;;;;;;10.17;9.07;;;12.60;99.90;;;;;;4937376;28;20648;-71
2021/05/14 04:56:27;;;;;;;9.00;8.20;;;12.60;99.90;;;;;;4937419;29;20213;-71
2021/05/14 04:58:52;;;;;;;9.27;8.37;;;12.60;99.90;;;;;;4937151;29;20202;-71
2021/05/14 05:01:18;;;;;;;10.93;9.05;;;12.70;99.90;;;;;;4935734;29;20737;-71
2021/05/14 05:03:50;;;;;;;8.87;8.00;;;12.70;99.90;;;;;;4936951;29;20182;-71
2021/05/14 05:06:17;;;;;;;9.77;8.63;;;12.60;99.90;;;;;;4937329;29;20245;-71
2021/05/14 05:08:43;;;;;;;9.70;8.33;;;12.60;99.90;;;;;;4937508;29;20916;-71
2021/05/14 05:11:08;;;;;;;10.10;8.20;;;12.60;99.90;;;;;;4935673;28;20452;-71
2021/05/14 05:13:34;;;;;;;12.93;7.57;;;12.70;99.90;;;;;;4936538;29;20173;-71
2021/05/14 05:16:00;;;;;;;9.43;8.53;;;12.80;99.90;;;;;;4936662;29;20209;-71
2021/05/14 05:18:25;;;;;;;8.57;7.80;;;12.80;99.90;;;;;;4936617;29;20553;-71
2021/05/14 05:20:51;;;;;;;8.70;7.37;;;13.00;99.90;;;;;;4936634;29;20278;-71
2021/05/14 05:23:16;;;;;;;8.83;8.03;;;13.10;99.90;;;;;;4934958;29;20181;-71
2021/05/14 05:25:42;;;;;;;8.37;7.53;;;13.10;99.90;;;;;;4923390;29;20225;-71
2021/05/14 05:28:08;;;;;;;8.40;7.60;;;13.10;99.90;;;;;;4917873;29;20187;-71
2021/05/14 05:30:33;;;;;;;7.93;7.23;;;13.20;99.90;;;;;;4919288;29;20198;-71
2021/05/14 05:32:59;;;;;;;8.13;7.33;;;13.20;99.90;;;;;;4957764;28;20170;-71
2021/05/14 05:35:24;;;;;;;8.17;7.47;;;13.30;99.90;;;;;;4941573;29;20195;-70
2021/05/14 05:37:50;;;;;;;9.20;8.30;;;13.40;99.90;;;;;;4927483;29;20201;-71
2021/05/14 05:40:15;;;;;;;8.70;7.83;;;13.40;99.90;;;;;;4917515;29;20254;-69
2021/05/14 05:42:41;;;;;;;9.43;8.53;;;13.30;99.90;;;;;;4933428;29;20179;-71
2021/05/14 05:45:07;;;;;;;8.80;7.90;;;13.40;99.90;;;;;;4917730;29;20751;-71
2021/05/14 05:47:34;;;;;;;9.50;8.50;;;13.40;99.90;;;;;;4917741;29;20250;-71
2021/05/14 05:50:00;;;;;;;8.20;7.38;;;13.40;99.90;;;;;;4917396;29;20443;-71
2021/05/14 05:52:26;;;;;;;9.93;8.10;;;13.50;99.90;;;;;;4918384;29;20213;-72
2021/05/14 05:54:51;;;;;;;9.30;7.67;;;13.60;99.90;;;;;;4917227;29;20462;-71
2021/05/14 05:57:17;;;;;;;8.47;7.63;;;13.70;99.90;;;;;;4932357;29;20179;-71
2021/05/14 05:59:43;;;;;;;9.07;7.97;;;13.80;99.90;;;;;;4918839;29;20752;-71
2021/05/14 06:02:08;;;;;;;9.77;8.77;;;13.90;99.90;;;;;;4928195;29;20632;-71
2021/05/14 06:04:34;;;;;;;8.70;7.90;;;13.80;99.90;;;;;;4935662;29;20595;-70
2021/05/14 06:07:00;;;;;;;11.13;8.50;;;13.80;99.90;;;;;;4919364;29;20190;-70
2021/05/14 06:09:25;;;;;;;8.27;7.47;;;13.90;99.90;;;;;;4938675;29;20170;-70
2021/05/14 06:11:51;;;;;;;8.70;7.80;;;13.90;99.90;;;;;;4933644;29;20282;-70
2021/05/14 06:14:17;;;;;;;8.60;7.80;;;14.00;99.90;;;;;;4936472;29;20567;-72
2021/05/14 06:16:43;;;;;;;8.77;7.87;;;14.00;99.90;;;;;;4936963;29;20193;-71
2021/05/14 06:19:15;;;;;;;9.00;8.20;;;14.00;99.90;;;;;;4923091;29;20202;-71
2021/05/14 06:21:48;;;;;;;8.10;7.40;;;14.10;99.90;;;;;;4923092;29;20194;-71
2021/05/14 06:24:15;;;;;;;7.90;7.20;;;14.10;99.90;;;;;;4935840;29;20823;-71
2021/05/14 06:26:41;;;;;;;7.30;6.70;;;14.10;99.90;;;;;;4949148;28;20530;-71
2021/05/14 06:29:07;;;;;;;8.50;7.70;;;14.20;99.90;;;;;;4917425;29;20447;-71
2021/05/14 06:31:33;;;;;;;8.20;7.40;;;14.30;99.90;;;;;;4917507;29;20410;-71
2021/05/14 06:33:59;;;;;;;8.90;8.10;;;14.30;99.90;;;;;;4918527;29;20486;-71
2021/05/14 06:36:24;;;;;;;8.30;7.50;;;14.40;99.90;;;;;;4931180;29;20513;-71
2021/05/14 06:38:50;;;;;;;8.10;7.30;;;14.50;99.90;;;;;;4936345;29;20201;-71
2021/05/14 06:41:16;;;;;;;8.53;7.70;;;14.50;99.90;;;;;;4935994;28;20667;-70
2021/05/14 06:43:41;;;;;;;8.17;7.37;;;14.50;99.90;;;;;;4932717;29;20178;-69
2021/05/14 06:46:06;;;;;;;8.30;7.50;;;14.50;99.90;;;;;;4940374;29;20202;-70
2021/05/14 06:48:32;;;;;;;8.03;7.17;;;14.70;99.90;;;;;;4940388;29;20181;-71
2021/05/14 06:50:58;;;;;;;9.67;8.77;;;14.60;99.90;;;;;;4939988;29;20178;-71
2021/05/14 06:53:24;;;;;;;8.90;8.10;;;14.60;99.90;;;;;;4939286;29;20186;-71
2021/05/14 06:55:50;;;;;;;8.93;8.03;;;14.50;99.90;;;;;;4922034;29;20198;-71
2021/05/14 06:58:17;;;;;;;9.47;8.47;;;14.60;99.90;;;;;;4921359;29;20422;-71
2021/05/14 07:00:42;;;;;;;8.30;7.50;;;14.60;99.90;;;;;;4920950;29;20230;-71
2021/05/14 07:03:08;;;;;;;8.50;7.70;;;14.80;99.90;;;;;;4920884;29;20407;-73
2021/05/14 07:05:33;;;;;;;7.80;7.03;;;14.90;99.90;;;;;;4936543;29;20262;-70
2021/05/14 07:07:59;;;;;;;7.27;6.57;;;14.90;99.90;;;;;;4920179;29;20175;-69
2021/05/14 07:10:25;;;;;;;7.20;6.50;;;14.70;99.90;;;;;;4937386;29;20187;-70
2021/05/14 07:12:51;;;;;;;8.67;6.40;;;14.60;99.90;;;;;;4920778;29;20167;-71
2021/05/14 07:15:16;;;;;;;6.77;5.80;;;14.60;99.90;;;;;;4922280;29;20972;-71
2021/05/14 07:17:42;;;;;;;8.23;7.43;;;14.50;99.90;;;;;;4935847;29;20247;-71
2021/05/14 07:20:08;;;;;;;7.30;6.57;;;14.40;99.90;;;;;;4920694;29;20203;-71
2021/05/14 07:22:35;;;;;;;7.33;6.00;;;14.50;99.90;;;;;;4934836;29;20536;-71
2021/05/14 07:25:01;;;;;;;7.10;6.33;;;14.60;99.90;;;;;;4937996;29;20437;-71
2021/05/14 07:27:27;;;;;;;6.80;5.37;;;14.80;99.90;;;;;;4923950;29;20939;-72
2021/05/14 07:29:52;;;;;;;7.37;6.40;;;14.90;99.90;;;;;;4920324;29;20482;-71
2021/05/14 07:32:18;;;;;;;7.20;6.50;;;15.00;99.90;;;;;;4920504;29;20230;-72
2021/05/14 07:34:44;;;;;;;7.87;7.17;;;15.10;99.90;;;;;;4919870;29;20214;-71
2021/05/14 07:37:09;;;;;;;8.00;7.20;;;15.30;99.90;;;;;;4922330;29;20190;-71
2021/05/14 07:39:36;;;;;;;7.77;6.97;;;15.30;99.90;;;;;;4936273;29;20210;-71
2021/05/14 07:42:02;;;;;;;6.90;5.93;;;15.20;99.90;;;;;;4921352;29;20186;-71
2021/05/14 07:44:27;;;;;;;5.57;5.07;;;15.30;99.90;;;;;;4931892;29;20885;-71
2021/05/14 07:46:53;;;;;;;6.32;5.75;;;15.40;99.70;;;;;;4952988;29;20448;-71
2021/05/14 07:49:19;;;;;;;5.70;5.20;;;15.50;98.80;;;;;;4920689;29;20541;-71
2021/05/14 07:51:44;;;;;;;4.93;4.30;;;15.50;98.50;;;;;;4927560;28;20237;-71
2021/05/14 07:54:10;;;;;;;4.43;3.90;;;15.60;97.30;;;;;;4938365;29;20193;-72
2021/05/14 07:56:35;;;;;;;6.27;4.87;;;15.60;95.90;;;;;;4937489;29;20182;-71
2021/05/14 07:59:01;;;;;;;5.33;4.60;;;15.70;96.80;;;;;;4934413;29;20210;-71
2021/05/14 08:01:26;;;;;;;5.07;4.67;;;15.80;96.80;;;;;;4935948;29;20261;-71
2021/05/14 08:03:54;;;;;;;5.87;4.47;;;15.90;96.00;;;;;;4935755;28;20222;-70
2021/05/14 08:06:20;;;;;;;4.87;4.40;;;16.00;95.90;;;;;;4935994;29;20229;-71
2021/05/14 08:08:45;;;;;;;5.00;3.93;;;16.00;95.50;;;;;;4933155;29;20512;-71
2021/05/14 08:11:11;;;;;;;4.30;3.90;;;16.00;95.10;;;;;;4917244;29;20550;-71
2021/05/14 08:13:36;;;;;;;5.20;4.30;;;16.20;94.90;;;;;;4918891;29;20262;-71
2021/05/14 08:16:02;;;;;;;6.17;4.60;;;16.30;95.00;;;;;;4918800;29;20257;-71
2021/05/14 08:18:28;;;;;;;4.43;3.60;;;16.40;95.10;;;;;;4919170;29;20261;-71
2021/05/14 08:20:53;;;;;;;3.10;2.80;;;16.50;94.50;;;;;;4920078;29;20593;-71
2021/05/14 08:23:20;;;;;;;2.50;1.80;;;16.50;92.10;;;;;;4918563;29;20181;-71
2021/05/14 08:25:47;;;;;;;3.00;2.80;;;16.70;91.40;;;;;;4918735;29;20301;-70
2021/05/14 08:28:13;;;;;;;5.70;3.93;;;16.80;91.60;;;;;;4919006;29;20404;-70
2021/05/14 08:30:43;;;;;;;5.77;4.83;;;16.90;92.00;;;;;;4920148;29;20425;-70
2021/05/14 08:33:09;;;;;;;5.63;3.70;;;17.00;92.10;;;;;;4917509;29;21191;-70
2021/05/14 08:35:36;;;;;;;2.80;2.60;;;16.90;90.90;;;;;;4918685;29;20191;-71
2021/05/14 08:38:03;;;;;;;4.50;3.58;;;16.90;90.20;;;;;;4918560;29;20418;-71
2021/05/14 08:40:29;;;;;;;5.33;3.10;;;16.90;90.40;;;;;;4919334;29;20728;-71
2021/05/14 08:42:55;;;;;;;2.90;2.70;;;17.00;91.00;;;;;;4918333;29;20507;-69
2021/05/14 08:45:20;;;;;;;3.87;3.10;;;17.10;90.80;;;;;;4936774;29;20222;-70
2021/05/14 08:47:47;;;;;;;2.57;2.27;;;17.10;89.90;;;;;;4937769;29;20170;-70
2021/05/14 08:50:13;;;;;;;3.63;2.90;;;17.00;85.60;;;;;;4936937;29;20178;-70
2021/05/14 08:52:41;;;;;;;3.67;3.23;;;16.90;87.30;;;;;;4921728;29;20506;-71
2021/05/14 08:55:09;;;;;;;4.10;3.70;;;16.80;87.60;;;;;;4918088;29;20827;-70
2021/05/14 08:57:35;;;;;;;11.50;4.40;;;16.70;90.00;;;;;;4918141;29;20554;-71
2021/05/14 09:00:01;;;;;;;4.40;3.13;;;16.60;91.00;;;;;;4918135;29;20534;-70
2021/05/14 09:02:27;;;;;;;3.97;3.40;;;16.50;90.80;;;;;;4920262;29;20681;-70
2021/05/14 09:04:53;;;;;;;3.97;3.60;;;16.30;91.00;;;;;;4921290;29;20437;-70
2021/05/14 09:07:19;;;;;;;5.83;4.03;;;16.10;91.80;;;;;;4919821;29;20186;-70
2021/05/14 09:10:04;;;;;;;3.80;3.50;;;16.10;92.20;;;;;;4929393;29;20550;-70
2021/05/14 09:12:37;;;;;;;4.60;4.20;;;16.40;92.60;;;;;;4936471;29;20421;-70
2021/05/14 09:15:29;;;;;;;4.17;3.87;;;16.70;92.30;;;;;;4936375;29;20445;-70
2021/05/14 09:18:04;;;;;;;4.70;4.33;;;17.10;91.80;;;;;;4936235;29;20948;-70
2021/05/14 09:20:34;;;;;;;5.70;4.57;;;17.40;91.20;;;;;;4936309;29;20521;-71
2021/05/14 09:23:00;;;;;;;3.60;3.30;;;17.40;90.70;;;;;;4934800;29;20446;-70
2021/05/14 09:25:25;;;;;;;3.80;3.50;;;17.50;90.60;;;;;;4935915;28;20544;-70
2021/05/14 09:27:51;;;;;;;4.33;3.63;;;17.60;89.10;;;;;;4936328;29;20576;-70
2021/05/14 09:30:17;;;;;;;4.00;3.70;;;17.50;89.90;;;;;;4936102;29;20540;-70
2021/05/14 09:32:42;;;;;;;5.20;3.67;;;17.50;90.20;;;;;;4919754;29;20548;-69
2021/05/14 09:35:08;;;;;;;4.80;4.40;;;17.50;89.90;;;;;;4917062;29;20207;-69
2021/05/14 09:37:45;;;;;;;5.27;4.00;;;17.50;89.50;;;;;;4917082;29;20654;-70
2021/05/14 09:40:16;;;;;;;4.43;4.13;;;17.40;88.70;;;;;;4917102;29;20456;-71
2021/05/14 09:42:42;;;;;;;3.90;3.50;;;17.50;89.40;;;;;;4920263;29;20422;-70
2021/05/14 09:45:25;;;;;;;3.70;3.40;;;17.40;89.80;;;;;;4935591;29;20440;-69
2021/05/14 09:48:22;;;;;;;4.00;3.60;;;17.40;88.20;;;;;;4935529;28;21011;-69
2021/05/14 09:50:49;;;;;;;4.13;3.37;;;17.30;88.30;;;;;;4935627;29;20426;-70
2021/05/14 09:53:16;;;;;;;3.30;3.00;;;17.30;89.40;;;;;;4924443;29;20865;-70
2021/05/14 09:55:51;;;;;;;3.83;3.53;;;17.30;89.40;;;;;;4916842;29;20518;-70
2021/05/14 09:58:20;;;;;;;3.77;3.47;;;17.30;89.20;;;;;;4916726;29;20407;-71
2021/05/14 10:00:46;;;;;;;3.80;3.40;;;17.30;89.70;;;;;;4916213;29;20482;-70
2021/05/14 10:03:16;;;;;;;4.07;3.77;;;17.30;89.00;;;;;;4918497;29;20995;-70
2021/05/14 10:05:44;;;;;;;3.40;3.10;;;17.30;88.40;;;;;;4926920;29;20439;-70
2021/05/14 10:08:12;;;;;;;5.60;3.43;;;17.30;88.80;;;;;;4916557;29;20514;-71
2021/05/14 10:10:39;;;;;;;3.97;3.10;;;17.50;89.70;;;;;;4932383;29;20426;-71
2021/05/14 10:13:07;;;;;;;4.60;3.80;;;17.50;88.60;;;;;;4934717;29;20914;-71
2021/05/14 10:15:33;;;;;;;4.20;3.70;;;17.50;88.60;;;;;;4916680;28;540719;-71
2021/05/14 10:18:00;;;;;;;4.00;3.33;;;17.50;87.80;;;;;;4936031;29;20414;-69
2021/05/14 10:20:31;;;;;;;3.17;2.83;;;17.60;88.60;;;;;;4935808;29;20656;-70
2021/05/14 10:22:58;;;;;;;4.23;3.10;;;17.80;87.50;;;;;;4935180;29;20430;-70
2021/05/14 10:25:48;;;;;;;5.63;2.83;;;18.00;85.90;;;;;;4936354;29;20437;-70
2021/05/14 10:28:19;;;;;;;3.27;3.07;;;18.20;84.50;;;;;;4936518;29;20481;-70
2021/05/14 10:31:05;;;;;;;3.13;2.40;;;18.50;83.50;;;;;;4946290;29;20831;-70
2021/05/14 10:33:46;;;;;;;2.40;2.17;;;18.40;82.30;;;;;;4934784;29;20978;-71
2021/05/14 10:36:38;;;;;;;2.03;1.93;;;18.40;82.10;;;;;;4935112;29;20549;-70
2021/05/14 10:39:08;;;;;;;2.73;2.53;;;18.10;80.90;;;;;;4934843;29;20458;-70
2021/05/14 10:41:45;;;;;;;3.70;3.40;;;18.10;82.90;;;;;;4928188;29;20429;-73
2021/05/14 10:44:11;;;;;;;3.50;3.20;;;18.00;84.60;;;;;;4935968;29;20406;-70
2021/05/14 10:46:37;;;;;;;3.20;2.93;;;18.00;85.20;;;;;;4935149;29;20496;-70
2021/05/14 10:49:12;;;;;;;2.97;2.70;;;18.00;84.70;;;;;;4936221;29;20194;-69
2021/05/14 10:51:41;;;;;;;3.40;3.10;;;18.00;84.80;;;;;;4948432;29;20269;-69
2021/05/14 10:54:07;;;;;;;3.40;3.07;;;17.80;84.20;;;;;;4935342;29;20437;-70
2021/05/14 10:56:33;;;;;;;4.07;3.03;;;17.80;83.80;;;;;;4935538;29;20418;-71
2021/05/14 10:59:01;;;;;;;2.73;2.47;;;17.80;82.80;;;;;;4934072;29;20210;-70
2021/05/14 11:01:40;;;;;;;4.40;2.60;;;17.90;82.50;;;;;;4930989;29;20183;-71
2021/05/14 11:04:14;;;;;;;2.70;2.50;;;18.00;81.50;;;;;;4930977;29;20473;-69
2021/05/14 11:06:50;;;;;;;3.63;3.07;;;18.10;82.30;;;;;;4916351;29;20421;-70
2021/05/14 11:09:17;;;;;;;3.40;3.10;;;18.00;83.70;;;;;;4921092;29;20467;-70
2021/05/14 11:11:54;;;;;;;4.70;3.07;;;18.00;83.80;;;;;;4933909;29;20174;-69
2021/05/14 11:14:20;;;;;;;5.47;2.80;;;18.10;82.90;;;;;;4926791;29;20468;-70
2021/05/14 11:16:49;;;;;;;4.50;3.00;;;18.10;82.60;;;;;;4935411;29;20442;-70
2021/05/14 11:19:21;;;;;;;2.60;2.40;;;17.90;82.50;;;;;;4935648;29;20660;-70
2021/05/14 11:22:09;;;;;;;3.13;2.90;;;17.90;82.80;;;;;;4935574;29;20464;-70
2021/05/14 11:24:48;;;;;;;2.97;2.23;;;17.80;81.50;;;;;;4932532;29;20494;-71
2021/05/14 11:27:37;;;;;;;3.60;2.17;;;17.60;79.00;;;;;;4936281;29;20414;-71
2021/05/14 11:30:08;;;;;;;2.77;2.57;;;17.80;79.40;;;;;;4935632;29;20418;-71
2021/05/14 11:32:44;;;;;;;3.50;2.70;;;17.90;79.80;;;;;;4938183;29;20426;-71
2021/05/14 11:35:14;;;;;;;2.90;2.70;;;17.90;80.50;;;;;;4924085;29;20512;-72
2021/05/14 11:37:52;;;;;;;3.53;2.67;;;17.80;80.70;;;;;;4938392;29;20468;-71
2021/05/14 11:40:25;;;;;;;3.43;2.50;;;18.00;81.40;;;;;;4938883;29;20791;-71
2021/05/14 11:42:56;;;;;;;3.40;3.00;;;18.30;80.80;;;;;;4939921;29;20426;-71
2021/05/14 11:45:27;;;;;;;2.43;2.33;;;18.50;79.40;;;;;;4925864;29;20458;-70
2021/05/14 11:47:58;;;;;;;5.43;2.70;;;18.50;79.30;;;;;;4920253;29;20415;-70
2021/05/14 11:50:35;;;;;;;2.70;2.00;;;18.70;78.90;;;;;;4920191;29;20959;-70
2021/05/14 11:53:04;;;;;;;3.77;2.50;;;18.90;78.70;;;;;;4919476;29;20442;-70
2021/05/14 11:55:30;;;;;;;4.57;3.27;;;19.00;78.30;;;;;;4920830;29;20479;-71
2021/05/14 11:57:57;;;;;;;5.17;3.40;;;18.90;78.10;;;;;;4934367;29;20433;-71
2021/05/14 12:00:34;;;;;;;3.53;3.00;;;18.50;79.40;;;;;;4920591;29;20546;-73
2021/05/14 12:03:02;;;;;;;7.70;3.00;;;18.20;80.80;;;;;;4920153;29;20442;-70
2021/05/14 12:05:28;;;;;;;6.37;3.30;;;18.10;82.00;;;;;;4924253;28;20466;-72
2021/05/14 12:08:27;;;;;;;4.33;3.17;;;18.00;81.30;;;;;;4939137;29;20883;-72
2021/05/14 12:10:56;;;;;;;5.63;2.50;;;17.70;81.60;;;;;;4919884;29;20523;-71
2021/05/14 12:13:28;;;;;;;3.60;2.40;;;17.70;84.90;;;;;;4919556;29;20435;-70
2021/05/14 12:16:00;;;;;;;4.37;3.20;;;17.90;83.20;;;;;;4920251;29;20985;-70
2021/05/14 12:18:27;;;;;;;3.73;3.30;;;18.00;81.90;;;;;;4918944;29;20814;-71
2021/05/14 12:20:55;;;;;;;3.85;3.45;;;18.10;81.80;;;;;;4918373;29;20442;-71
2021/05/14 12:23:22;;;;;;;3.67;3.37;;;18.10;81.00;;;;;;4916260;29;20209;-71
2021/05/14 12:25:53;;;;;;;6.40;3.60;;;18.10;81.40;;;;;;4916404;29;20493;-71
2021/05/14 12:28:34;;;;;;;4.00;3.60;;;18.00;81.20;;;;;;4917805;29;20889;-71
2021/05/14 12:31:25;;;;;;;4.23;3.60;;;17.50;82.50;;;;;;4916453;29;20447;-71
2021/05/14 12:33:55;;;;;;;4.70;3.10;;;17.40;83.20;;;;;;4913950;29;20454;-71
2021/05/14 12:36:41;;;;;;;3.60;3.30;;;17.30;83.80;;;;;;4916698;29;20538;-71
2021/05/14 12:39:11;;;;;;;3.97;3.60;;;17.20;83.40;;;;;;4934629;29;20466;-71
2021/05/14 12:41:43;;;;;;;4.13;3.30;;;17.10;83.70;;;;;;4936708;29;20585;-71
2021/05/14 12:44:16;;;;;;;6.20;3.93;;;17.20;84.10;;;;;;4937733;29;20414;-71
2021/05/14 12:46:59;;;;;;;3.40;3.10;;;17.10;83.50;;;;;;4937600;29;20394;-71